Terminal Aerodrome Forecast
Issued by NWS Sioux Falls, SD

Home | Current Version | Previous Version | Text Only | Print | Product List | Glossary On
Versions: 1 2 3 4 5 6 7 8 9 10 11 12 13 14 15 16 17 18
000
FTUS43 KFSD 211740
TAFHON
TAF
KHON 211740Z 2118/2218 10004KT P6SM SKC
     FM220000 14006KT P6SM SCT250
     FM221200 15008KT P6SM OVC110
     FM221500 14009KT P6SM OVC020
     FM221600 14009KT 2SM -SN BR OVC010=

USA.gov is the U.S. government's official web portal to all federal, state and local government web resources and services.